28 de setembro de 2022

Hora Código Clima Temp. Visibilidade Tecto Vento METAR/SPECI
01:30
V
15 °C 10 km+ 5.000 ft 250° 250° 14 kt METAR LFBO 272330Z AUTO 25014KT 9999 FEW015 BKN050 OVC064 15/13 Q1012 TEMPO 27018G28KT 4000 -RA BKN012 OVC030
01:00
V
15 °C 10 km+ 6.400 ft 250° 250° 14 kt METAR LFBO 272300Z AUTO 25014KT 9999 FEW020 BKN064 BKN078 15/13 Q1013 TEMPO 27018G28KT 4000 -RA BKN012 OVC030
00:30
V
15 °C 10 km+ 10.000 ft 260° 260° 14 kt METAR LFBO 272230Z AUTO 26014KT 9999 -RA FEW018/// BKN100/// ///TCU 15/13 Q1013 TEMPO 27018G28KT 4000 -RA BKN012 OVC030
00:00
V
15 °C 10 km+ 9.400 ft 260° 260° 15 kt METAR LFBO 272200Z AUTO 26015KT 9999 FEW019 OVC094 15/13 Q1013 TEMPO 4000 -RA BKN012 OVC030

27 de setembro de 2022

Hora Código Clima Temp. Visibilidade Tecto Vento METAR/SPECI
23:30
V
15 °C 10 km+ 8.200 ft 260° 260° 17 kt METAR LFBO 272130Z AUTO 26017KT 9999 SCT018 SCT068 BKN082 15/13 Q1014 TEMPO 4000 -RA BKN012 OVC030
23:00
V
15 °C 10 km+ 3.100 ft 260° 260° 13 kt METAR LFBO 272100Z AUTO 26013KT 9999 SCT019 BKN031 BKN037 15/13 Q1014 TEMPO 4000 -RA BKN012 OVC030
22:30
V
15 °C 10 km+ 6.400 ft 260° 260° 13 kt METAR LFBO 272030Z AUTO 26013KT 9999 FEW019 SCT039 OVC064 15/13 Q1014 TEMPO 4000 -RA BKN012 OVC030
22:00
V
15 °C 10 km+ 7.000 ft 260° 260° 13 kt METAR LFBO 272000Z AUTO 26013KT 9999 FEW029 SCT042 BKN070 15/13 Q1014 NOSIG
21:30
V
15 °C 10 km+ 6.800 ft 260° 260° 12 kt METAR LFBO 271930Z AUTO 26012KT 9999 FEW042 SCT050 BKN068 15/13 Q1014 NOSIG
21:00
V
15 °C 10 km+ 5.200 ft 270° 270° 12 kt METAR LFBO 271900Z AUTO 27012KT 9999 FEW038 SCT044 BKN052 15/12 Q1014 NOSIG
20:30
V
15 °C 10 km+ 5.600 ft 270° 270° 13 kt METAR LFBO 271830Z AUTO 27013KT 9999 FEW041 BKN056 BKN068 15/13 Q1014 NOSIG
20:00
V
14 °C 10 km+ - 270° 270° 14 kt METAR LFBO 271800Z AUTO 27014KT CAVOK 14/13 Q1014 NOSIG
19:30
V
14 °C 10 km+ 5.800 ft 260° 260° 14 kt METAR LFBO 271730Z AUTO 26014KT 9999 FEW048 BKN058 BKN068 14/12 Q1014 NOSIG
19:00
M
15 °C 7 km 2.400 ft 280° 280° 16 kt METAR LFBO 271700Z AUTO 28016KT 7000 -RA FEW014/// BKN024/// BKN036/// ///TCU 15/13 Q1014 BECMG SCT030 BKN060
18:30
M
17 °C 10 km+ 2.500 ft 270° 270° 15 kt METAR LFBO 271630Z AUTO 27015KT 9999 BKN025/// BKN033/// BKN068/// //////CB 17/13 Q1014 BECMG SCT030 BKN060
18:00
V
17 °C 10 km+ 6.000 ft 270° 270° 14 kt METAR LFBO 271600Z AUTO 27014KT 9999 FEW027 BKN060 BKN072 17/13 Q1014 TEMPO 28016G26KT 4000 SHRA SCT025TCU BKN050
17:30
V
17 °C 10 km+ 7.200 ft 270° 270° 14 kt METAR LFBO 271530Z AUTO 27014KT 9999 FEW014 BKN072 17/13 Q1014 TEMPO 28016G26KT 4000 SHRA SCT025TCU BKN050
17:00
V
15 °C 10 km+ 3.300 ft 290° 290° 12 kt METAR LFBO 271500Z AUTO 29012KT 9999 -RADZ FEW016/// SCT025/// BKN033/// //////TCU 15/14 Q1014 BECMG SCT030 BKN060
16:30
V
18 °C 10 km+ 3.700 ft 270° 270° 14 kt METAR LFBO 271430Z AUTO 27014KT 9999 SCT029 BKN037 BKN048 18/11 Q1014 TEMPO SCT025TCU BKN050
16:00
V
19 °C 10 km+ 5.600 ft 280° 280° 12 kt METAR LFBO 271400Z AUTO 28012KT 250V320 9999 SCT032 BKN056 BKN070 19/11 Q1014 BECMG SCT025TCU BKN050
15:30
V
17 °C 10 km+ 6.000 ft 280° 280° 14 kt METAR LFBO 271330Z AUTO 28014KT 9999 FEW012 BKN060 OVC072 17/10 Q1014 TEMPO 4000 -SHRA SCT045TCU
15:00
V
17 °C 10 km+ 3.200 ft 290° 290° 14 kt METAR LFBO 271300Z AUTO 29014KT 270V330 9999 BKN032 BKN040 OVC058 17/10 Q1014 TEMPO 4000 -SHRA SCT045TCU
14:30
V
17 °C 10 km+ 3.400 ft 300° 300° 16 kt METAR LFBO 271230Z AUTO 30016KT 280V340 9999 BKN034 BKN045 OVC052 17/10 Q1014 BECMG SCT025TCU BKN050
14:00
V
18 °C 10 km+ 4.100 ft 300° 300° 16 kt METAR LFBO 271200Z AUTO 30016KT 9999 FEW024 SCT035 BKN041 18/09 Q1014 BECMG SCT025TCU BKN050
13:30
V
18 °C 10 km+ 3.500 ft 310° 310° 18 kt METAR LFBO 271130Z AUTO 31018KT 9999 BKN035 BKN044 OVC060 18/09 Q1014 TEMPO 4000 -SHRA SCT045TCU
13:00
V
18 °C 10 km+ 5.800 ft 290° 290° 15 kt METAR LFBO 271100Z AUTO 29015KT 260V320 9999 FEW014 BKN058 18/10 Q1014 TEMPO 4000 -SHRA SCT045TCU
12:30
V
17 °C 10 km+ 3.500 ft 300° 300° 17 - 28 kt METAR LFBO 271030Z AUTO 30017G28KT 9999 SCT030 BKN035 BKN050 17/09 Q1014 TEMPO 4000 -SHRA SCT045TCU BECMG 28011KT
12:00
V
16 °C 10 km+ 4.100 ft 300° 300° 15 kt METAR LFBO 271000Z AUTO 30015KT 9999 FEW015 BKN041 OVC058 16/10 Q1014 NOSIG
11:30
V
16 °C 10 km+ 4.700 ft 300° 300° 14 kt METAR LFBO 270930Z AUTO 30014KT 9999 FEW020 SCT025 BKN047 16/11 Q1014 NOSIG
11:00
V
15 °C 10 km+ 3.600 ft 310° 310° 13 kt METAR LFBO 270900Z AUTO 31013KT 9999 SCT017 BKN036 BKN060 15/12 Q1014 NOSIG
10:30
M
15 °C 10 km+ 2.300 ft 300° 300° 8 kt METAR LFBO 270830Z AUTO 30008KT 9999 SCT015 BKN023 BKN035 15/12 Q1014 NOSIG
10:00
M
15 °C 10 km+ 1.300 ft 300° 300° 12 kt METAR LFBO 270800Z AUTO 30012KT 9999 FEW009 BKN013 BKN019 15/12 Q1014 BECMG SCT025 BKN050
09:30
M
14 °C 10 km+ 1.200 ft 280° 280° 10 kt METAR LFBO 270730Z AUTO 28010KT 9999 BKN012 BKN034 BKN043 14/12 Q1013 BECMG SCT025 BKN050
09:00
V
14 °C 10 km+ 3.300 ft 280° 280° 10 kt METAR LFBO 270700Z AUTO 28010KT 9999 FEW012 SCT019 BKN033 14/12 Q1013 NOSIG
08:30
V
14 °C 10 km+ 4.600 ft 270° 270° 7 kt METAR LFBO 270630Z AUTO 27007KT 9999 FEW017 SCT037 BKN046 14/13 Q1013 NOSIG
08:00
V
14 °C 10 km+ 4.000 ft 280° 280° 9 kt METAR LFBO 270600Z AUTO 28009KT 9999 FEW015 BKN040 OVC056 14/13 Q1013 NOSIG
07:30
V
14 °C 10 km+ 4.200 ft 270° 270° 9 kt METAR LFBO 270530Z AUTO 27009KT 9999 FEW013 SCT018 BKN042 14/13 Q1013 TEMPO BKN010
07:00
V
14 °C 10 km+ 5.400 ft 290° 290° 11 kt METAR LFBO 270500Z AUTO 29011KT 9999 FEW013 OVC054 14/12 Q1012 TEMPO BKN010
06:30
M
14 °C 10 km+ 1.400 ft 290° 290° 8 kt METAR LFBO 270430Z AUTO 29008KT 9999 BKN014 BKN020 BKN030 14/12 Q1012 NOSIG
06:00
M
14 °C 10 km+ 2.000 ft 300° 300° 7 kt METAR LFBO 270400Z AUTO 30007KT 9999 FEW010 SCT014 BKN020 14/12 Q1012 TEMPO BKN010
05:30
M
14 °C 10 km+ 2.200 ft 260° 260° 10 kt METAR LFBO 270330Z AUTO 26010KT 9999 FEW017 BKN022 BKN027 14/12 Q1012 TEMPO BKN010
05:00
M
14 °C 10 km+ 2.800 ft 260° 260° 10 kt METAR LFBO 270300Z AUTO 26010KT 9999 FEW022 BKN028 BKN038 14/12 Q1012 TEMPO BKN010
04:30
V
13 °C 10 km+ 5.400 ft 260° 260° 12 kt METAR LFBO 270230Z AUTO 26012KT 9999 FEW027 BKN054 13/12 Q1012 TEMPO BKN010
04:00
V
14 °C 10 km+ 4.600 ft 260° 260° 12 kt METAR LFBO 270200Z AUTO 26012KT 9999 BKN046 OVC054 14/12 Q1012 TEMPO 28015G25KT 3000 -RA BKN010
03:30
V
14 °C 10 km+ 4.100 ft 270° 270° 11 kt METAR LFBO 270130Z AUTO 27011KT 9999 -DZ FEW012 SCT033 OVC041 14/13 Q1012 TEMPO 28015G25KT 3000 -RA BKN010
03:00
M
14 °C 7 km 1.200 ft 290° 290° 12 kt METAR LFBO 270100Z AUTO 29012KT 7000 -RA FEW008 BKN012 BKN019 14/13 Q1012 TEMPO 28015G25KT 3000 -RA BKN009 OVC030
02:30
M
14 °C 10 km+ 1.000 ft 260° 260° 17 kt METAR LFBO 270030Z AUTO 26017KT 9999 -DZ BKN010/// BKN014/// OVC040/// //////TCU 14/13 Q1011 TEMPO 28015G25KT 3000 -RA BKN010
02:00
I
14 °C 4,9 km 3.200 ft 260° 260° 16 kt METAR LFBO 270000Z AUTO 26016KT 9999 4900 -RA SCT016 BKN032 BKN038 14/13 Q1011 TEMPO 28015G25KT 3000 -RA BKN012 OVC030
01:30
V
15 °C 10 km+ 5.400 ft 260° 260° 17 kt METAR LFBO 262330Z AUTO 26017KT 9999 DZ FEW022 SCT045 BKN054 15/12 Q1011 TEMPO 28015G25KT 3000 -RA BKN012 OVC030
01:00
V
16 °C 10 km+ - 260° 260° 17 kt METAR LFBO 262300Z AUTO 26017KT 9999 ///TCU 16/11 Q1012 TEMPO 28015G25KT 3000 -RA BKN012 OVC030
00:30
V
16 °C 10 km+ - 250° 250° 15 kt METAR LFBO 262230Z AUTO 25015KT 220V280 CAVOK 16/11 Q1012 TEMPO 28015G25KT 3000 -RA BKN012 OVC030
00:00
V
16 °C 10 km+ - 250° 250° 15 kt METAR LFBO 262200Z AUTO 25015KT CAVOK 16/11 Q1012 TEMPO 28015G25KT 3000 -RA BKN012 OVC030

26 de setembro de 2022

Hora Código Clima Temp. Visibilidade Tecto Vento METAR/SPECI
23:30
V
16 °C 10 km+ - 250° 250° 14 kt METAR LFBO 262130Z AUTO 25014KT CAVOK 16/11 Q1012 TEMPO 28015G25KT 3000 -RA BKN012 OVC030
23:00
V
15 °C 10 km+ - 250° 250° 14 kt METAR LFBO 262100Z AUTO 25014KT 9999 FEW025 15/11 Q1013 NOSIG
22:30
V
16 °C 10 km+ - 250° 250° 15 kt METAR LFBO 262030Z AUTO 25015KT CAVOK 16/11 Q1013 NOSIG
22:00
V
16 °C 10 km+ - 260° 260° 14 kt METAR LFBO 262000Z AUTO 26014KT CAVOK 16/10 Q1013 NOSIG
21:30
V
17 °C 10 km+ - 260° 260° 14 kt METAR LFBO 261930Z AUTO 26014KT CAVOK 17/10 Q1013 NOSIG
21:00
V
17 °C 10 km+ - 270° 270° 13 kt METAR LFBO 261900Z AUTO 27013KT CAVOK 17/09 Q1013 NOSIG
20:30
V
18 °C 10 km+ 7.600 ft 270° 270° 13 kt METAR LFBO 261830Z AUTO 27013KT 9999 FEW042 BKN076 18/09 Q1013 NOSIG
20:00
V
18 °C 10 km+ 8.200 ft 270° 270° 14 kt METAR LFBO 261800Z AUTO 27014KT 9999 FEW046 SCT068 BKN082 18/09 Q1013 NOSIG
19:30
V
19 °C 10 km+ 8.000 ft 270° 270° 15 kt METAR LFBO 261730Z AUTO 27015KT 9999 FEW046 BKN080 OVC140 19/09 Q1013 NOSIG
19:00
V
19 °C 10 km+ - 280° 280° 17 kt METAR LFBO 261700Z AUTO 28017KT CAVOK 19/09 Q1013 NOSIG
18:30
V
19 °C 10 km+ - 290° 290° 14 kt METAR LFBO 261630Z AUTO 29014KT CAVOK 19/09 Q1013 NOSIG
18:00
V
20 °C 10 km+ - 280° 280° 16 kt METAR LFBO 261600Z AUTO 28016KT CAVOK 20/08 Q1013 NOSIG
17:30
V
20 °C 10 km+ - 280° 280° 16 kt METAR LFBO 261530Z AUTO 28016KT CAVOK 20/08 Q1013 NOSIG
17:00
V
20 °C 10 km+ - 280° 280° 15 kt METAR LFBO 261500Z AUTO 28015KT 250V310 CAVOK 20/07 Q1013 NOSIG
16:30
V
20 °C 10 km+ - 290° 290° 13 kt METAR LFBO 261430Z AUTO 29013KT CAVOK 20/07 Q1013 NOSIG
16:00
V
21 °C 10 km+ - 280° 280° 16 kt METAR LFBO 261400Z AUTO 28016KT CAVOK 21/07 Q1013 NOSIG
15:30
V
20 °C 10 km+ 4.900 ft 290° 290° 15 - 26 kt METAR LFBO 261330Z AUTO 29015G26KT 260V330 9999 FEW043 BKN049 BKN056 20/07 Q1013 BECMG 30014KT
15:00
V
19 °C 10 km+ - 270° 270° 12 kt METAR LFBO 261300Z AUTO 27012KT 240V300 9999 FEW040 19/08 Q1014 NOSIG
14:30
V
19 °C 10 km+ 17.000 ft 280° 280° 12 kt METAR LFBO 261230Z AUTO 28012KT 250V310 9999 SCT039 SCT050 BKN170 19/10 Q1014 NOSIG
14:00
V
19 °C 10 km+ 5.800 ft 300° 300° 12 kt METAR LFBO 261200Z AUTO 30012KT 9999 SCT035 SCT046 BKN058 19/09 Q1014 NOSIG
13:30
V
19 °C 10 km+ - 300° 300° 10 kt METAR LFBO 261130Z AUTO 30010KT 9999 FEW033 19/10 Q1015 NOSIG
13:00
V
18 °C 10 km+ - 310° 310° 11 kt METAR LFBO 261100Z AUTO 31011KT 260V330 9999 FEW022 18/10 Q1015 NOSIG
12:30
V
17 °C 10 km+ - 300° 300° 11 kt METAR LFBO 261030Z AUTO 30011KT 9999 FEW022 17/10 Q1015 NOSIG
12:00
V
17 °C 10 km+ 23.000 ft 320° 320° 14 kt METAR LFBO 261000Z AUTO 32014KT 9999 SCT023 SCT210 BKN230 17/10 Q1015 NOSIG
11:30
V
17 °C 10 km+ - 290° 290° 9 kt METAR LFBO 260930Z AUTO 29009KT 240V320 9999 FEW023 17/10 Q1015 NOSIG
11:00
V
16 °C 10 km+ - 280° 280° 6 kt METAR LFBO 260900Z AUTO 28006KT 250V320 CAVOK 16/11 Q1015 NOSIG
10:30
V
14 °C 10 km+ - 300° 300° 6 kt METAR LFBO 260830Z AUTO 30006KT 250V330 9999 FEW001 14/11 Q1015 NOSIG
10:00
V
14 °C 10 km+ - 320° 320° 8 kt METAR LFBO 260800Z AUTO 32008KT 9999 FEW011 14/11 Q1015 NOSIG
09:30
V
13 °C 10 km+ - 290° 290° 6 kt METAR LFBO 260730Z AUTO 29006KT 260V340 CAVOK 13/10 Q1015 NOSIG
09:00
V
12 °C 10 km+ - 260° 260° 5 kt METAR LFBO 260700Z AUTO 26005KT 190V290 CAVOK 12/10 Q1015 NOSIG
08:30
V
10 °C 10 km+ - Var Var 2 kt METAR LFBO 260630Z AUTO VRB02KT CAVOK 10/09 Q1015 NOSIG
08:00
V
9 °C 10 km+ - Var Var 2 kt METAR LFBO 260600Z AUTO VRB02KT CAVOK 09/08 Q1015 NOSIG
07:30
V
9 °C 10 km+ - 170° 170° 4 kt METAR LFBO 260530Z AUTO 17004KT CAVOK 09/08 Q1015 NOSIG
07:00
V
9 °C 10 km+ - Var Var 2 kt METAR LFBO 260500Z AUTO VRB02KT CAVOK 09/08 Q1015 TEMPO 4000 BR
06:30
V
10 °C 10 km+ - Var Var 2 kt METAR LFBO 260430Z AUTO VRB02KT CAVOK 10/08 Q1015 TEMPO 4000 BR
06:00
V
11 °C 10 km+ - 270° 270° 4 kt METAR LFBO 260400Z AUTO 27004KT 230V300 CAVOK 11/09 Q1015 TEMPO 4000 BR
05:30
V
9 °C 10 km+ - 230° 230° 3 kt METAR LFBO 260330Z AUTO 23003KT 200V280 CAVOK 09/08 Q1015 TEMPO 4000 BR
05:00
V
9 °C 10 km+ - 190° 190° 4 kt METAR LFBO 260300Z AUTO 19004KT CAVOK 09/08 Q1015 TEMPO 4000 BR
04:30
V
9 °C 10 km+ - 190° 190° 4 kt METAR LFBO 260230Z AUTO 19004KT CAVOK 09/08 Q1015 TEMPO 4000 BR
04:00
V
9 °C 10 km+ - 150° 150° 3 kt METAR LFBO 260200Z AUTO 15003KT CAVOK 09/08 Q1015 TEMPO 4000 BR
03:30
V
10 °C 10 km+ - 170° 170° 3 kt METAR LFBO 260130Z AUTO 17003KT CAVOK 10/08 Q1015 TEMPO 4000 BR
03:00
V
10 °C 10 km+ - 190° 190° 3 kt METAR LFBO 260100Z AUTO 19003KT CAVOK 10/08 Q1016 NOSIG
02:30
V
10 °C 10 km+ - 160° 160° 4 kt METAR LFBO 260030Z AUTO 16004KT CAVOK 10/08 Q1016 NOSIG
02:00
V
10 °C 10 km+ - 180° 180° 4 kt METAR LFBO 260000Z AUTO 18004KT CAVOK 10/08 Q1016 NOSIG
01:30
V
11 °C 10 km+ - 180° 180° 3 kt METAR LFBO 252330Z AUTO 18003KT CAVOK 11/09 Q1016 NOSIG
01:00
V
11 °C 10 km+ - 210° 210° 2 kt METAR LFBO 252300Z AUTO 21002KT CAVOK 11/09 Q1016 NOSIG
00:30
V
12 °C 10 km+ - Var Var 2 kt METAR LFBO 252230Z AUTO VRB02KT CAVOK 12/09 Q1016 NOSIG
00:00
V
13 °C 10 km+ - 290° 290° 3 kt METAR LFBO 252200Z AUTO 29003KT CAVOK 13/09 Q1017 NOSIG

25 de setembro de 2022

Hora Código Clima Temp. Visibilidade Tecto Vento METAR/SPECI
23:30
V
13 °C 10 km+ - 320° 320° 3 kt METAR LFBO 252130Z AUTO 32003KT CAVOK 13/09 Q1017 NOSIG
23:00
V
14 °C 10 km+ - 310° 310° 3 kt METAR LFBO 252100Z AUTO 31003KT CAVOK 14/10 Q1017 NOSIG
22:30
V
14 °C 10 km+ - 310° 310° 4 kt METAR LFBO 252030Z AUTO 31004KT CAVOK 14/09 Q1017 NOSIG
22:00
V
15 °C 10 km+ - 300° 300° 3 kt METAR LFBO 252000Z AUTO 30003KT CAVOK 15/09 Q1017 NOSIG
21:30
V
15 °C 10 km+ - 310° 310° 4 kt METAR LFBO 251930Z AUTO 31004KT CAVOK 15/09 Q1016 NOSIG
21:00
V
16 °C 10 km+ - 350° 350° 4 kt METAR LFBO 251900Z AUTO 35004KT CAVOK 16/10 Q1016 NOSIG
20:30
V
17 °C 10 km+ - 360° 360° 5 kt METAR LFBO 251830Z AUTO 36005KT 340V040 CAVOK 17/10 Q1016 NOSIG
20:00
V
17 °C 10 km+ - 360° 360° 4 kt METAR LFBO 251800Z AUTO 36004KT CAVOK 17/09 Q1015 NOSIG
19:30
V
18 °C 10 km+ - 340° 340° 7 kt METAR LFBO 251730Z AUTO 34007KT CAVOK 18/08 Q1015 NOSIG
19:00
V
19 °C 10 km+ - 350° 350° 8 kt METAR LFBO 251700Z AUTO 35008KT CAVOK 19/08 Q1015 NOSIG
18:30
V
19 °C 10 km+ - 330° 330° 8 kt METAR LFBO 251630Z AUTO 33008KT CAVOK 19/08 Q1015 NOSIG
18:00
V
20 °C 10 km+ - 350° 350° 8 kt METAR LFBO 251600Z AUTO 35008KT CAVOK 20/09 Q1015 NOSIG
17:30
V
20 °C 10 km+ - 310° 310° 7 kt METAR LFBO 251530Z AUTO 31007KT 280V360 9999 FEW041 SCT070 20/09 Q1015 NOSIG
17:00
V
20 °C 10 km+ - 340° 340° 6 kt METAR LFBO 251500Z AUTO 34006KT 260V020 9999 FEW011 20/09 Q1015 NOSIG
Dados mais antigos

Nós e terceiros acompanhamos seu comportamento na internet em nosso site com cookies. Se você continuar, nós assumimos que você concorda com nossa política de cookies. Saiba mais